createdAt,value
2016-09-20T00:00:01.476Z,0
2016-09-20T00:00:42.020Z,0
2016-09-20T00:01:22.565Z,0
2016-09-20T00:02:03.108Z,0
2016-09-20T00:02:43.644Z,0
2016-09-20T00:03:24.194Z,0
2016-09-20T00:04:04.723Z,0
2016-09-20T00:04:45.265Z,0
2016-09-20T00:05:25.808Z,0
2016-09-20T00:06:06.346Z,0
2016-09-20T00:06:46.902Z,0
2016-09-20T00:07:27.438Z,0
2016-09-20T00:08:07.982Z,0
2016-09-20T00:08:48.521Z,0
2016-09-20T00:09:29.065Z,0
2016-09-20T00:10:09.610Z,0
2016-09-20T00:10:50.156Z,0
2016-09-20T00:11:30.700Z,0
2016-09-20T00:12:11.241Z,0
2016-09-20T00:12:51.783Z,0
2016-09-20T00:13:32.321Z,0
2016-09-20T00:14:12.863Z,0
2016-09-20T00:14:53.406Z,0
2016-09-20T00:15:33.950Z,0
2016-09-20T00:16:14.493Z,0
2016-09-20T00:16:55.038Z,0
2016-09-20T00:17:35.577Z,0
2016-09-20T00:18:16.131Z,0
2016-09-20T00:18:56.673Z,0
2016-09-20T00:19:37.207Z,0
2016-09-20T00:20:17.751Z,0
2016-09-20T00:20:58.294Z,0
2016-09-20T00:21:38.832Z,0
2016-09-20T00:22:19.374Z,0
2016-09-20T00:22:59.911Z,0
2016-09-20T00:23:40.459Z,0
2016-09-20T00:24:21.000Z,0
2016-09-20T00:25:01.547Z,0
2016-09-20T00:25:42.090Z,0
2016-09-20T00:26:22.631Z,0
2016-09-20T00:27:03.176Z,0
2016-09-20T00:27:43.713Z,0
2016-09-20T00:28:24.257Z,0
2016-09-20T00:29:04.800Z,0
2016-09-20T00:29:45.345Z,0
2016-09-20T00:30:25.885Z,0
2016-09-20T00:31:06.426Z,0
2016-09-20T00:31:46.963Z,0
2016-09-20T00:32:27.508Z,0
2016-09-20T00:33:08.054Z,0
2016-09-20T00:33:48.593Z,0
2016-09-20T00:34:29.139Z,0
2016-09-20T00:35:09.687Z,0
2016-09-20T00:35:50.224Z,0
2016-09-20T00:36:30.773Z,0
2016-09-20T00:37:11.302Z,0
2016-09-20T00:37:51.844Z,0
2016-09-20T00:38:32.380Z,0
2016-09-20T00:39:12.920Z,0
2016-09-20T00:39:53.467Z,0
2016-09-20T00:40:34.013Z,0
2016-09-20T00:41:14.560Z,0
2016-09-20T00:41:55.102Z,0
2016-09-20T00:42:35.650Z,0
2016-09-20T00:43:16.191Z,0
2016-09-20T00:43:56.730Z,0
2016-09-20T00:44:37.283Z,0
2016-09-20T00:45:17.831Z,0
2016-09-20T00:45:58.364Z,0
2016-09-20T00:46:38.900Z,0
2016-09-20T00:47:19.443Z,0
2016-09-20T00:47:59.984Z,0
2016-09-20T00:48:40.527Z,0
2016-09-20T00:49:21.071Z,0
2016-09-20T00:50:01.609Z,0
2016-09-20T00:50:42.150Z,0
2016-09-20T00:51:22.693Z,0
2016-09-20T00:52:03.218Z,0
2016-09-20T00:52:43.758Z,0
2016-09-20T00:53:24.297Z,0
2016-09-20T00:54:04.840Z,0
2016-09-20T00:54:45.383Z,0
2016-09-20T00:55:25.929Z,0
2016-09-20T00:56:06.475Z,0
2016-09-20T00:56:47.033Z,0
2016-09-20T00:57:27.585Z,0
2016-09-20T00:58:08.132Z,0
2016-09-20T00:58:48.680Z,0
2016-09-20T00:59:29.218Z,0
2016-09-20T01:00:09.770Z,0
2016-09-20T01:00:50.323Z,0
2016-09-20T01:01:30.861Z,0
2016-09-20T01:02:11.400Z,0
2016-09-20T01:02:51.950Z,0
2016-09-20T01:03:32.499Z,0
2016-09-20T01:04:13.039Z,0
2016-09-20T01:04:53.569Z,0
2016-09-20T01:05:34.113Z,0
2016-09-20T01:06:14.651Z,0
2016-09-20T01:06:55.179Z,0
2016-09-20T01:07:35.740Z,0
2016-09-20T01:08:16.282Z,0
2016-09-20T01:08:56.827Z,0
2016-09-20T01:09:37.379Z,0
2016-09-20T01:10:17.923Z,0
2016-09-20T01:10:58.462Z,0
2016-09-20T01:11:39.007Z,0
2016-09-20T01:12:19.550Z,0
2016-09-20T01:13:00.091Z,0
2016-09-20T01:13:40.631Z,0
2016-09-20T01:14:21.174Z,0
2016-09-20T01:15:01.718Z,0
2016-09-20T01:15:42.258Z,0
2016-09-20T01:16:22.802Z,0
2016-09-20T01:17:03.351Z,0
2016-09-20T01:17:43.901Z,0
2016-09-20T01:18:24.445Z,0
2016-09-20T01:19:04.988Z,0
2016-09-20T01:19:45.521Z,0
2016-09-20T01:20:26.079Z,0
2016-09-20T01:21:06.616Z,0
2016-09-20T01:21:47.156Z,0
2016-09-20T01:22:27.692Z,0
2016-09-20T01:23:08.236Z,0
2016-09-20T01:23:48.779Z,0
2016-09-20T01:24:29.320Z,0
2016-09-20T01:25:09.863Z,0
2016-09-20T01:25:50.409Z,0
2016-09-20T01:26:30.960Z,0
2016-09-20T01:27:11.516Z,0
2016-09-20T01:27:52.047Z,0
2016-09-20T01:28:32.598Z,0
2016-09-20T01:29:13.143Z,0
2016-09-20T01:29:53.681Z,0
2016-09-20T01:30:34.226Z,0
2016-09-20T01:31:14.770Z,0
2016-09-20T01:31:55.308Z,0
2016-09-20T01:32:35.849Z,0
2016-09-20T01:33:16.393Z,0
2016-09-20T01:33:56.944Z,0
2016-09-20T01:34:37.495Z,0
2016-09-20T01:35:18.038Z,0
2016-09-20T01:35:58.589Z,0
2016-09-20T01:36:39.128Z,0
2016-09-20T01:37:19.665Z,0
2016-09-20T01:38:00.208Z,0
2016-09-20T01:38:40.754Z,0
2016-09-20T01:39:21.290Z,0
2016-09-20T01:40:01.811Z,0
2016-09-20T01:40:42.352Z,0
2016-09-20T01:41:22.895Z,0
2016-09-20T01:42:03.437Z,0
2016-09-20T01:42:43.979Z,0
2016-09-20T01:43:24.527Z,0
2016-09-20T01:44:05.075Z,0
2016-09-20T01:44:45.625Z,0
2016-09-20T01:45:26.166Z,0
2016-09-20T01:46:06.717Z,0
2016-09-20T01:46:47.265Z,0
2016-09-20T01:47:27.808Z,0
2016-09-20T01:48:08.357Z,0
2016-09-20T01:48:48.901Z,0
2016-09-20T01:49:29.446Z,0
2016-09-20T01:50:09.987Z,0
2016-09-20T01:50:50.521Z,0
2016-09-20T01:51:31.059Z,0
2016-09-20T01:52:11.605Z,0
2016-09-20T01:52:52.146Z,0
2016-09-20T01:53:32.691Z,0
2016-09-20T01:54:13.239Z,0
2016-09-20T01:54:53.787Z,0
2016-09-20T01:55:34.325Z,0
2016-09-20T01:56:14.870Z,0
2016-09-20T01:56:55.420Z,0
2016-09-20T01:57:35.956Z,0
2016-09-20T01:58:16.503Z,0
2016-09-20T01:58:57.059Z,0
2016-09-20T01:59:37.594Z,0
2016-09-20T02:00:18.137Z,0
2016-09-20T02:00:58.681Z,0
2016-09-20T02:01:39.223Z,0
2016-09-20T02:02:19.767Z,0
2016-09-20T02:03:00.308Z,0
2016-09-20T02:03:40.849Z,0
2016-09-20T02:04:21.423Z,0
2016-09-20T02:05:01.959Z,0
2016-09-20T02:05:42.503Z,0
2016-09-20T02:06:23.051Z,0
2016-09-20T02:07:03.590Z,0
2016-09-20T02:07:44.133Z,0
2016-09-20T02:08:24.673Z,0
2016-09-20T02:09:05.195Z,0
2016-09-20T02:09:45.755Z,0
2016-09-20T02:10:26.296Z,0
2016-09-20T02:11:06.834Z,0
2016-09-20T02:11:47.375Z,0
2016-09-20T02:12:27.925Z,0
2016-09-20T02:13:08.465Z,0
2016-09-20T02:13:49.011Z,0
2016-09-20T02:14:29.561Z,0
2016-09-20T02:15:10.110Z,0
2016-09-20T02:15:50.649Z,0
2016-09-20T02:16:31.208Z,0
2016-09-20T02:17:11.748Z,0
2016-09-20T02:17:52.307Z,0
2016-09-20T02:18:32.848Z,0
2016-09-20T02:19:13.398Z,0
2016-09-20T02:19:53.940Z,0
2016-09-20T02:20:34.491Z,0
2016-09-20T02:21:15.036Z,0
2016-09-20T02:21:55.582Z,0
2016-09-20T02:22:36.125Z,0
2016-09-20T02:23:16.666Z,0
2016-09-20T02:23:57.211Z,0
2016-09-20T02:24:37.750Z,0
2016-09-20T02:25:18.297Z,0
2016-09-20T02:25:58.842Z,0
2016-09-20T02:26:39.382Z,0
2016-09-20T02:27:19.927Z,0
2016-09-20T02:28:00.475Z,0
2016-09-20T02:28:41.022Z,0
2016-09-20T02:29:21.558Z,0
2016-09-20T02:30:02.105Z,0
2016-09-20T02:30:42.640Z,0
2016-09-20T02:31:23.189Z,0
2016-09-20T02:32:03.723Z,0
2016-09-20T02:32:44.265Z,0
2016-09-20T02:33:24.810Z,0
2016-09-20T02:34:05.349Z,0
2016-09-20T02:34:45.893Z,0
2016-09-20T02:35:26.432Z,0
2016-09-20T02:36:06.974Z,0
2016-09-20T02:36:47.517Z,0
2016-09-20T02:37:28.067Z,0
2016-09-20T02:38:08.610Z,0
2016-09-20T02:38:49.156Z,0
2016-09-20T02:39:29.701Z,0
2016-09-20T02:40:10.236Z,0
2016-09-20T02:40:50.782Z,0
2016-09-20T02:41:31.327Z,0
2016-09-20T02:42:11.872Z,0
2016-09-20T02:42:52.413Z,0
2016-09-20T02:43:32.953Z,0
2016-09-20T02:44:13.498Z,0
2016-09-20T02:44:54.042Z,0
2016-09-20T02:45:34.600Z,0
2016-09-20T02:46:15.131Z,0
2016-09-20T02:46:55.681Z,0
2016-09-20T02:47:36.227Z,0
2016-09-20T02:48:16.773Z,0
2016-09-20T02:48:57.312Z,0
2016-09-20T02:49:37.864Z,0
2016-09-20T02:50:18.408Z,0
2016-09-20T02:50:58.958Z,0
2016-09-20T02:51:39.491Z,0
2016-09-20T02:52:20.034Z,0
2016-09-20T02:53:00.579Z,0
2016-09-20T02:53:41.121Z,0
2016-09-20T02:54:21.667Z,0
2016-09-20T02:55:02.211Z,0
2016-09-20T02:55:42.753Z,0
2016-09-20T02:56:23.303Z,0
2016-09-20T02:57:03.855Z,0
2016-09-20T02:57:44.403Z,0
2016-09-20T02:58:24.952Z,0
2016-09-20T02:59:05.491Z,0
2016-09-20T02:59:46.040Z,0
2016-09-20T03:00:26.585Z,0
2016-09-20T03:01:07.124Z,0
2016-09-20T03:01:47.671Z,0
2016-09-20T03:02:28.212Z,0
2016-09-20T03:03:08.759Z,0
2016-09-20T03:03:49.304Z,0
2016-09-20T03:04:29.844Z,0
2016-09-20T03:05:10.384Z,0
2016-09-20T03:05:50.923Z,0
2016-09-20T03:06:31.465Z,0
2016-09-20T03:07:12.003Z,0
2016-09-20T03:07:52.546Z,0
2016-09-20T03:08:33.095Z,0
2016-09-20T03:09:13.640Z,0
2016-09-20T03:09:54.196Z,0
2016-09-20T03:10:34.732Z,0
2016-09-20T03:11:15.286Z,0
2016-09-20T03:11:55.831Z,0
2016-09-20T03:12:36.373Z,0
2016-09-20T03:13:16.918Z,0
2016-09-20T03:13:57.451Z,0
2016-09-20T03:14:37.989Z,0
2016-09-20T03:15:18.532Z,0
2016-09-20T03:15:59.062Z,0
2016-09-20T03:16:39.596Z,0
2016-09-20T03:17:20.135Z,0
2016-09-20T03:18:00.669Z,0
2016-09-20T03:18:41.223Z,0
2016-09-20T03:19:21.829Z,0
2016-09-20T03:20:02.385Z,0
2016-09-20T03:20:42.931Z,0
2016-09-20T03:21:23.479Z,0
2016-09-20T03:22:04.029Z,0
2016-09-20T03:22:44.567Z,0
2016-09-20T03:23:25.116Z,0
2016-09-20T03:24:05.656Z,0
2016-09-20T03:24:46.193Z,0
2016-09-20T03:25:26.737Z,0
2016-09-20T03:26:07.289Z,0
2016-09-20T03:26:47.828Z,0
2016-09-20T03:27:28.364Z,0
2016-09-20T03:28:08.907Z,0
2016-09-20T03:28:49.450Z,0
2016-09-20T03:29:29.994Z,0
2016-09-20T03:30:10.543Z,0
2016-09-20T03:30:51.091Z,0
2016-09-20T03:31:31.650Z,0
2016-09-20T03:32:12.192Z,0
2016-09-20T03:32:52.728Z,0
2016-09-20T03:33:33.277Z,0
2016-09-20T03:34:13.827Z,0
2016-09-20T03:34:54.364Z,0
2016-09-20T03:35:34.919Z,0
2016-09-20T03:36:15.459Z,0
2016-09-20T03:36:56.007Z,0
2016-09-20T03:37:36.532Z,0
2016-09-20T03:38:17.070Z,0
2016-09-20T03:38:57.621Z,0
2016-09-20T03:39:38.160Z,0
2016-09-20T03:40:18.701Z,0
2016-09-20T03:40:59.252Z,0
2016-09-20T03:41:39.821Z,0
2016-09-20T03:42:20.324Z,0
2016-09-20T03:43:00.862Z,0
2016-09-20T03:43:41.419Z,0
2016-09-20T03:44:22.080Z,0
2016-09-20T03:45:02.623Z,0
2016-09-20T03:45:43.171Z,0
2016-09-20T03:46:23.711Z,0
2016-09-20T03:47:04.254Z,0
2016-09-20T03:47:45.029Z,0
2016-09-20T03:48:25.624Z,0
2016-09-20T03:49:06.174Z,0
2016-09-20T03:49:46.722Z,0
2016-09-20T03:50:27.270Z,0
2016-09-20T03:51:07.818Z,0
2016-09-20T03:51:48.370Z,0
2016-09-20T03:52:28.907Z,0
2016-09-20T03:53:09.455Z,0
2016-09-20T03:53:50.270Z,0
2016-09-20T03:54:30.804Z,0
2016-09-20T03:55:11.340Z,0
2016-09-20T03:55:51.884Z,0
2016-09-20T03:56:32.430Z,0
2016-09-20T03:57:12.984Z,0
2016-09-20T03:57:53.644Z,0
2016-09-20T03:58:34.288Z,0
2016-09-20T03:59:14.887Z,0
2016-09-20T03:59:55.429Z,0
2016-09-20T04:00:35.971Z,0
2016-09-20T04:01:16.516Z,0
2016-09-20T04:01:57.068Z,0
2016-09-20T04:02:37.611Z,0
2016-09-20T04:03:18.160Z,0
2016-09-20T04:03:58.703Z,0
2016-09-20T04:04:39.247Z,0
2016-09-20T04:05:19.784Z,0
2016-09-20T04:06:00.332Z,0
2016-09-20T04:06:40.878Z,0
2016-09-20T04:07:21.426Z,0
2016-09-20T04:08:01.979Z,0
2016-09-20T04:08:42.624Z,0
2016-09-20T04:09:23.163Z,0
2016-09-20T04:10:03.750Z,0
2016-09-20T04:10:44.293Z,0
2016-09-20T04:11:24.919Z,0
2016-09-20T04:12:05.467Z,0
2016-09-20T04:12:46.011Z,0
2016-09-20T04:13:26.543Z,0
2016-09-20T04:14:07.082Z,0
2016-09-20T04:14:47.625Z,0
2016-09-20T04:15:28.170Z,0
2016-09-20T04:16:08.710Z,0
2016-09-20T04:16:49.266Z,0
2016-09-20T04:17:29.814Z,0
2016-09-20T04:18:10.362Z,0
2016-09-20T04:18:50.913Z,0
2016-09-20T04:19:31.454Z,0
2016-09-20T04:20:12.002Z,0
2016-09-20T04:20:52.550Z,0
2016-09-20T04:21:33.100Z,0
2016-09-20T04:22:13.648Z,0
2016-09-20T04:22:54.192Z,0
2016-09-20T04:23:34.743Z,0
2016-09-20T04:24:15.267Z,0
2016-09-20T04:24:55.804Z,0
2016-09-20T04:25:36.385Z,0
2016-09-20T04:26:16.932Z,0
2016-09-20T04:26:57.474Z,0
2016-09-20T04:27:38.024Z,0
2016-09-20T04:28:18.559Z,0
2016-09-20T04:28:59.105Z,0
2016-09-20T04:29:39.652Z,0
2016-09-20T04:30:20.197Z,0
2016-09-20T04:31:00.744Z,0
2016-09-20T04:31:41.278Z,0
2016-09-20T04:32:21.823Z,0
2016-09-20T04:33:02.371Z,0
2016-09-20T04:33:42.914Z,0
2016-09-20T04:34:23.458Z,0
2016-09-20T04:35:04.004Z,0
2016-09-20T04:35:44.548Z,0
2016-09-20T04:36:25.108Z,0
2016-09-20T04:37:05.628Z,0
2016-09-20T04:37:46.172Z,0
2016-09-20T04:38:26.708Z,0
2016-09-20T04:39:07.245Z,0
2016-09-20T04:39:47.781Z,0
2016-09-20T04:40:28.337Z,0
2016-09-20T04:41:08.877Z,0
2016-09-20T04:41:49.427Z,0
2016-09-20T04:42:29.971Z,0
2016-09-20T04:43:10.516Z,0
2016-09-20T04:43:51.059Z,0
2016-09-20T04:44:31.606Z,0
2016-09-20T04:45:12.146Z,0
2016-09-20T04:45:52.684Z,0
2016-09-20T04:46:33.227Z,0
2016-09-20T04:47:13.759Z,0
2016-09-20T04:47:54.306Z,0
2016-09-20T04:48:34.836Z,0
2016-09-20T04:49:15.390Z,0
2016-09-20T04:49:55.943Z,0
2016-09-20T04:50:36.478Z,0
2016-09-20T04:51:17.010Z,0
2016-09-20T04:51:57.560Z,0
2016-09-20T04:52:38.102Z,0
2016-09-20T04:53:18.643Z,0
2016-09-20T04:53:59.192Z,0
2016-09-20T04:54:39.733Z,0
2016-09-20T04:55:20.273Z,0
2016-09-20T04:56:00.797Z,0
2016-09-20T04:56:41.338Z,0
2016-09-20T04:57:21.888Z,0
2016-09-20T04:58:02.428Z,0
2016-09-20T04:58:42.973Z,0
2016-09-20T04:59:23.520Z,0
2016-09-20T05:00:04.060Z,0
2016-09-20T05:00:44.600Z,0
2016-09-20T05:01:25.140Z,0
2016-09-20T05:02:05.691Z,0
2016-09-20T05:02:46.219Z,0
2016-09-20T05:03:26.759Z,0
2016-09-20T05:04:07.314Z,0
2016-09-20T05:04:47.872Z,0
2016-09-20T05:05:28.401Z,0
2016-09-20T05:06:08.944Z,0
2016-09-20T05:06:49.487Z,0
2016-09-20T05:07:30.038Z,0
2016-09-20T05:08:10.578Z,0
2016-09-20T05:08:51.127Z,0
2016-09-20T05:09:31.692Z,0
2016-09-20T05:10:12.222Z,0
2016-09-20T05:10:52.764Z,0
2016-09-20T05:11:33.299Z,0
2016-09-20T05:12:13.841Z,0
2016-09-20T05:12:54.403Z,0
2016-09-20T05:13:34.941Z,0
2016-09-20T05:14:15.482Z,0
2016-09-20T05:14:56.028Z,0
2016-09-20T05:15:36.572Z,0
2016-09-20T05:16:17.130Z,0
2016-09-20T05:16:57.676Z,0
2016-09-20T05:17:38.265Z,0
2016-09-20T05:18:18.828Z,0
2016-09-20T05:18:59.369Z,0
2016-09-20T05:19:39.909Z,0
2016-09-20T05:20:20.439Z,0
2016-09-20T05:21:00.990Z,0
2016-09-20T05:21:41.531Z,0
2016-09-20T05:22:22.078Z,0
2016-09-20T05:23:02.630Z,0
2016-09-20T05:23:43.168Z,0
2016-09-20T05:24:23.705Z,0
2016-09-20T05:25:04.245Z,0
2016-09-20T05:25:44.795Z,0
2016-09-20T05:26:25.331Z,0
2016-09-20T05:27:05.878Z,0
2016-09-20T05:27:46.410Z,0
2016-09-20T05:28:26.953Z,0
2016-09-20T05:29:07.494Z,5
2016-09-20T05:29:48.042Z,5
2016-09-20T05:30:28.609Z,5
2016-09-20T05:31:09.150Z,5
2016-09-20T05:31:49.698Z,5
2016-09-20T05:32:30.246Z,5
2016-09-20T05:33:10.791Z,5
2016-09-20T05:33:51.338Z,5
2016-09-20T05:34:31.899Z,5
2016-09-20T05:35:12.435Z,5
2016-09-20T05:35:52.993Z,5
2016-09-20T05:36:33.528Z,5
2016-09-20T05:37:14.081Z,5
2016-09-20T05:37:55.519Z,5
2016-09-20T05:38:36.098Z,5
2016-09-20T05:39:16.727Z,5
2016-09-20T05:39:57.266Z,5
2016-09-20T05:40:37.820Z,5
2016-09-20T05:41:18.357Z,5
2016-09-20T05:41:58.897Z,5
2016-09-20T05:42:39.445Z,5
2016-09-20T05:43:19.981Z,5
2016-09-20T05:44:00.534Z,5
2016-09-20T05:44:41.281Z,5
2016-09-20T05:45:21.821Z,10
2016-09-20T05:46:02.406Z,10
2016-09-20T05:46:42.944Z,10
2016-09-20T05:47:23.489Z,10
2016-09-20T05:48:04.044Z,10
2016-09-20T05:48:44.588Z,10
2016-09-20T05:49:25.136Z,10
2016-09-20T05:50:05.880Z,10
2016-09-20T05:50:46.453Z,10
2016-09-20T05:51:27.017Z,10
2016-09-20T05:52:07.549Z,10
2016-09-20T05:52:48.080Z,10
2016-09-20T05:53:28.628Z,10
2016-09-20T05:54:09.193Z,10
2016-09-20T05:54:49.793Z,10
2016-09-20T05:55:30.334Z,10
2016-09-20T05:56:10.874Z,10
2016-09-20T05:56:51.415Z,10
2016-09-20T05:57:31.953Z,10
2016-09-20T05:58:12.493Z,15
2016-09-20T05:58:53.039Z,15
2016-09-20T05:59:33.591Z,15
2016-09-20T06:00:14.135Z,15
2016-09-20T06:00:54.675Z,15
2016-09-20T06:01:35.220Z,15
2016-09-20T06:02:15.778Z,15
2016-09-20T06:02:56.311Z,15
2016-09-20T06:03:36.878Z,15
2016-09-20T06:04:17.430Z,15
2016-09-20T06:04:58.004Z,15
2016-09-20T06:05:38.561Z,15
2016-09-20T06:06:19.090Z,15
2016-09-20T06:06:59.630Z,15
2016-09-20T06:07:40.177Z,15
2016-09-20T06:08:20.719Z,15
2016-09-20T06:09:01.310Z,15
2016-09-20T06:09:41.763Z,15
2016-09-20T06:10:22.315Z,15
2016-09-20T06:11:02.857Z,20
2016-09-20T06:11:43.404Z,20
2016-09-20T06:12:23.953Z,20
2016-09-20T06:13:04.508Z,20
2016-09-20T06:13:45.052Z,20
2016-09-20T06:14:25.585Z,20
2016-09-20T06:15:06.132Z,20
2016-09-20T06:15:46.660Z,20
2016-09-20T06:16:27.203Z,20
2016-09-20T06:17:07.745Z,20
2016-09-20T06:17:48.291Z,20
2016-09-20T06:18:28.831Z,25
2016-09-20T06:19:09.373Z,25
2016-09-20T06:19:49.929Z,25
2016-09-20T06:20:30.477Z,25
2016-09-20T06:21:11.025Z,25
2016-09-20T06:21:51.565Z,25
2016-09-20T06:22:32.120Z,30
2016-09-20T06:23:12.752Z,30
2016-09-20T06:23:53.298Z,30
2016-09-20T06:24:33.854Z,30
2016-09-20T06:25:14.391Z,30
2016-09-20T06:25:54.922Z,30
2016-09-20T06:26:35.460Z,30
2016-09-20T06:27:16.002Z,35
2016-09-20T06:27:56.562Z,35
2016-09-20T06:28:37.106Z,35
2016-09-20T06:29:17.651Z,35
2016-09-20T06:29:58.197Z,35
2016-09-20T06:30:38.744Z,40
2016-09-20T06:31:19.293Z,40
2016-09-20T06:31:59.842Z,40
2016-09-20T06:32:40.380Z,40
2016-09-20T06:33:20.930Z,40
2016-09-20T06:34:01.481Z,40
2016-09-20T06:34:42.063Z,40
2016-09-20T06:35:22.615Z,40
2016-09-20T06:36:03.175Z,40
2016-09-20T06:36:43.720Z,40
2016-09-20T06:37:24.263Z,40
2016-09-20T06:38:04.808Z,40
2016-09-20T06:38:45.360Z,40
2016-09-20T06:39:25.906Z,40
2016-09-20T06:40:06.452Z,40
2016-09-20T06:40:47.002Z,45
2016-09-20T06:41:27.546Z,45
2016-09-20T06:42:08.089Z,45
2016-09-20T06:42:48.634Z,45
2016-09-20T06:43:29.175Z,45
2016-09-20T06:44:09.735Z,45
2016-09-20T06:44:50.285Z,45
2016-09-20T06:45:30.823Z,45
2016-09-20T06:46:11.354Z,45
2016-09-20T06:46:51.897Z,45
2016-09-20T06:47:32.438Z,45
2016-09-20T06:48:12.982Z,50
2016-09-20T06:48:53.525Z,50
2016-09-20T06:49:34.073Z,50
2016-09-20T06:50:14.617Z,50
2016-09-20T06:50:55.152Z,55
2016-09-20T06:51:35.701Z,55
2016-09-20T06:52:16.243Z,55
2016-09-20T06:52:56.788Z,55
2016-09-20T06:53:37.337Z,55
2016-09-20T06:54:17.882Z,60
2016-09-20T06:54:58.434Z,60
2016-09-20T06:55:38.968Z,60
2016-09-20T06:56:19.511Z,60
2016-09-20T06:57:00.066Z,60
2016-09-20T06:57:40.612Z,60
2016-09-20T06:58:21.150Z,60
2016-09-20T06:59:01.696Z,65
2016-09-20T06:59:42.301Z,65
2016-09-20T07:00:22.840Z,65
2016-09-20T07:01:03.381Z,65
2016-09-20T07:01:43.927Z,70
2016-09-20T07:02:24.470Z,70
2016-09-20T07:03:05.011Z,75
2016-09-20T07:03:45.553Z,80
2016-09-20T07:04:26.098Z,85
2016-09-20T07:05:06.639Z,90
2016-09-20T07:05:47.170Z,95
2016-09-20T07:06:27.720Z,100
2016-09-20T07:07:08.268Z,105
2016-09-20T07:07:48.817Z,105
2016-09-20T07:08:29.351Z,110
2016-09-20T07:09:09.899Z,110
2016-09-20T07:09:50.610Z,115
2016-09-20T07:10:30.998Z,115
2016-09-20T07:11:11.526Z,120
2016-09-20T07:11:52.072Z,120
2016-09-20T07:12:32.611Z,125
2016-09-20T07:13:13.162Z,125
2016-09-20T07:13:53.691Z,125
2016-09-20T07:14:34.244Z,130
2016-09-20T07:15:14.791Z,135
2016-09-20T07:15:55.344Z,140
2016-09-20T07:16:35.892Z,145
2016-09-20T07:17:16.444Z,145
2016-09-20T07:17:56.996Z,150
2016-09-20T07:18:37.547Z,155
2016-09-20T07:19:18.098Z,155
2016-09-20T07:19:58.634Z,160
2016-09-20T07:20:39.174Z,160
2016-09-20T07:21:19.716Z,160
2016-09-20T07:22:00.261Z,165
2016-09-20T07:22:40.801Z,170
2016-09-20T07:23:21.343Z,170
2016-09-20T07:24:01.885Z,175
2016-09-20T07:24:42.426Z,180
2016-09-20T07:25:22.970Z,185
2016-09-20T07:26:03.513Z,185
2016-09-20T07:26:44.054Z,190
2016-09-20T07:27:24.606Z,190
2016-09-20T07:28:05.148Z,195
2016-09-20T07:28:45.703Z,195
2016-09-20T07:29:26.240Z,195
2016-09-20T07:30:06.785Z,195
2016-09-20T07:30:47.321Z,195
2016-09-20T07:31:27.868Z,195
2016-09-20T07:32:08.411Z,200
2016-09-20T07:32:48.948Z,200
2016-09-20T07:33:29.487Z,205
2016-09-20T07:34:10.034Z,210
2016-09-20T07:34:50.569Z,215
2016-09-20T07:35:31.115Z,220
2016-09-20T07:36:11.662Z,225
2016-09-20T07:36:52.214Z,225
2016-09-20T07:37:32.763Z,230
2016-09-20T07:38:13.309Z,230
2016-09-20T07:38:53.849Z,235
2016-09-20T07:39:34.386Z,235
2016-09-20T07:40:14.930Z,235
2016-09-20T07:40:55.478Z,235
2016-09-20T07:41:36.019Z,240
2016-09-20T07:42:16.559Z,240
2016-09-20T07:42:57.111Z,240
2016-09-20T07:43:37.661Z,235
2016-09-20T07:44:18.209Z,240
2016-09-20T07:44:58.761Z,240
2016-09-20T07:45:39.306Z,240
2016-09-20T07:46:19.853Z,240
2016-09-20T07:48:54.459Z,240
2016-09-20T07:49:35.000Z,235
2016-09-20T07:50:15.538Z,235
2016-09-20T07:50:56.097Z,235
2016-09-20T07:51:36.635Z,235
2016-09-20T07:52:17.186Z,235
2016-09-20T07:52:57.729Z,235
2016-09-20T07:53:38.285Z,240
2016-09-20T07:54:18.835Z,240
2016-09-20T07:54:59.387Z,240
2016-09-20T07:55:39.927Z,240
2016-09-20T07:56:20.479Z,240
2016-09-20T07:57:01.020Z,245
2016-09-20T07:57:41.559Z,245
2016-09-20T07:58:22.099Z,250
2016-09-20T07:59:02.643Z,255
2016-09-20T07:59:43.181Z,260
2016-09-20T08:00:23.729Z,265
2016-09-20T08:01:04.270Z,270
2016-09-20T08:01:44.811Z,275
2016-09-20T08:02:25.360Z,280
2016-09-20T08:03:05.905Z,290
2016-09-20T08:03:46.450Z,300
2016-09-20T08:04:26.996Z,305
2016-09-20T08:05:07.543Z,315
2016-09-20T08:05:48.086Z,320
2016-09-20T08:06:28.641Z,325
2016-09-20T08:07:09.190Z,335
2016-09-20T08:07:49.735Z,340
2016-09-20T08:08:30.260Z,350
2016-09-20T08:09:10.803Z,360
2016-09-20T08:09:51.349Z,370
2016-09-20T08:10:31.891Z,380
2016-09-20T08:11:12.427Z,390
2016-09-20T08:11:52.975Z,400
2016-09-20T08:12:33.530Z,410
2016-09-20T08:13:14.074Z,415
2016-09-20T08:13:54.621Z,415
2016-09-20T08:14:35.151Z,415
2016-09-20T08:15:15.690Z,415
2016-09-20T08:15:56.235Z,415
2016-09-20T08:16:36.779Z,415
2016-09-20T08:17:17.321Z,420
2016-09-20T08:17:57.862Z,430
2016-09-20T08:18:38.404Z,435
2016-09-20T08:19:18.946Z,435
2016-09-20T08:19:59.470Z,435
2016-09-20T08:20:40.012Z,435
2016-09-20T08:21:20.546Z,435
2016-09-20T08:22:01.118Z,435
2016-09-20T08:22:41.618Z,435
2016-09-20T08:23:22.162Z,435
2016-09-20T08:24:02.705Z,430
2016-09-20T08:24:43.244Z,425
2016-09-20T08:25:23.781Z,420
2016-09-20T08:26:04.328Z,420
2016-09-20T08:26:44.857Z,425
2016-09-20T08:27:25.394Z,430
2016-09-20T08:28:05.927Z,440
2016-09-20T08:28:46.482Z,445
2016-09-20T08:29:27.025Z,450
2016-09-20T08:30:07.571Z,450
2016-09-20T08:30:48.101Z,450
2016-09-20T08:31:28.652Z,450
2016-09-20T08:32:09.179Z,450
2016-09-20T08:32:49.715Z,445
2016-09-20T08:33:30.252Z,445
2016-09-20T08:34:10.807Z,445
2016-09-20T08:34:51.361Z,440
2016-09-20T08:35:31.914Z,440
2016-09-20T08:36:12.458Z,435
2016-09-20T08:36:53.013Z,430
2016-09-20T08:37:33.555Z,430
2016-09-20T08:38:14.089Z,425
2016-09-20T08:38:54.651Z,415
2016-09-20T08:39:35.162Z,410
2016-09-20T08:40:15.700Z,410
2016-09-20T08:40:56.246Z,405
2016-09-20T08:41:36.801Z,400
2016-09-20T08:42:17.350Z,395
2016-09-20T08:42:57.887Z,390
2016-09-20T08:43:38.528Z,385
2016-09-20T08:44:18.954Z,375
2016-09-20T08:44:59.490Z,370
2016-09-20T08:45:40.032Z,365
2016-09-20T08:46:20.563Z,360
2016-09-20T08:47:01.105Z,360
2016-09-20T08:47:41.654Z,360
2016-09-20T08:48:22.183Z,365
2016-09-20T08:49:02.729Z,370
2016-09-20T08:49:43.267Z,375
2016-09-20T08:50:23.798Z,380
2016-09-20T08:51:04.323Z,380
2016-09-20T08:51:44.868Z,385
2016-09-20T08:52:25.413Z,390
2016-09-20T08:53:05.951Z,395
2016-09-20T08:53:46.495Z,405
2016-09-20T08:54:27.028Z,410
2016-09-20T08:55:07.573Z,415
2016-09-20T08:55:48.291Z,425
2016-09-20T08:56:28.624Z,430
2016-09-20T08:57:09.158Z,440
2016-09-20T08:57:49.700Z,445
2016-09-20T08:58:30.258Z,450
2016-09-20T08:59:10.808Z,460
2016-09-20T08:59:51.346Z,470
2016-09-20T09:00:31.885Z,480
2016-09-20T09:01:12.428Z,485
2016-09-20T09:01:52.981Z,490
2016-09-20T09:02:33.508Z,495
2016-09-20T09:03:14.043Z,500
2016-09-20T09:03:54.582Z,495
2016-09-20T09:04:35.102Z,495
2016-09-20T09:05:15.641Z,490
2016-09-20T09:05:56.200Z,490
2016-09-20T09:06:36.777Z,485
2016-09-20T09:07:17.310Z,485
2016-09-20T09:07:57.851Z,480
2016-09-20T09:08:38.392Z,475
2016-09-20T09:09:18.949Z,475
2016-09-20T09:09:59.499Z,475
2016-09-20T09:10:40.049Z,475
2016-09-20T09:11:20.576Z,470
2016-09-20T09:12:01.101Z,465
2016-09-20T09:12:41.645Z,465
2016-09-20T09:13:22.180Z,465
2016-09-20T09:14:02.731Z,465
2016-09-20T09:14:43.262Z,470
2016-09-20T09:15:23.816Z,475
2016-09-20T09:16:04.354Z,480
2016-09-20T09:16:44.901Z,480
2016-09-20T09:17:25.453Z,475
2016-09-20T09:18:05.975Z,465
2016-09-20T09:18:46.511Z,465
2016-09-20T09:19:27.052Z,475
2016-09-20T09:20:07.599Z,480
2016-09-20T09:20:48.140Z,480
2016-09-20T09:21:28.687Z,480
2016-09-20T09:22:09.221Z,485
2016-09-20T09:22:49.769Z,495
2016-09-20T09:23:30.296Z,505
2016-09-20T09:24:10.852Z,510
2016-09-20T09:24:51.377Z,525
2016-09-20T09:25:31.894Z,535
2016-09-20T09:26:12.439Z,545
2016-09-20T09:26:52.989Z,535
2016-09-20T09:27:33.540Z,525
2016-09-20T09:28:14.096Z,510
2016-09-20T09:28:54.643Z,490
2016-09-20T09:29:35.181Z,480
2016-09-20T09:30:15.747Z,465
2016-09-20T09:30:56.287Z,445
2016-09-20T09:31:36.845Z,440
2016-09-20T09:32:17.383Z,430
2016-09-20T09:32:57.921Z,430
2016-09-20T09:33:38.459Z,415
2016-09-20T09:34:19.024Z,410
2016-09-20T09:34:59.559Z,400
2016-09-20T09:35:40.101Z,385
2016-09-20T09:36:20.641Z,375
2016-09-20T09:37:01.179Z,360
2016-09-20T09:37:41.718Z,345
2016-09-20T09:38:22.254Z,335
2016-09-20T09:39:02.802Z,320
2016-09-20T09:39:43.351Z,310
2016-09-20T09:40:23.896Z,305
2016-09-20T09:41:04.435Z,305
2016-09-20T09:41:44.982Z,295
2016-09-20T09:42:25.529Z,295
2016-09-20T09:43:06.070Z,300
2016-09-20T09:43:46.608Z,305
2016-09-20T09:44:27.148Z,310
2016-09-20T09:45:07.668Z,315
2016-09-20T09:45:48.207Z,315
2016-09-20T09:46:28.754Z,300